sensor_id;sensor_type;location;lat;lon;timestamp;P1;P2;P0
31330;PMS5003;34067;39.548;-76.088;2022-12-22T00:00:17;23;18;
31330;PMS5003;34067;39.548;-76.088;2022-12-22T00:02:45;15;14;
31330;PMS5003;34067;39.548;-76.088;2022-12-22T00:05:14;15;15;
31330;PMS5003;34067;39.548;-76.088;2022-12-22T00:07:45;14;13;
31330;PMS5003;34067;39.548;-76.088;2022-12-22T00:10:18;16;15;
31330;PMS5003;34067;39.548;-76.088;2022-12-22T00:12:47;18;15;
31330;PMS5003;34067;39.548;-76.088;2022-12-22T00:15:16;19;16;
31330;PMS5003;34067;39.548;-76.088;2022-12-22T00:17:44;17;17;
31330;PMS5003;34067;39.548;-76.088;2022-12-22T00:20:14;20;19;
31330;PMS5003;34067;39.548;-76.088;2022-12-22T00:22:45;21;15;
31330;PMS5003;34067;39.548;-76.088;2022-12-22T00:25:14;20;18;
31330;PMS5003;34067;39.548;-76.088;2022-12-22T00:27:42;15;14;
31330;PMS5003;34067;39.548;-76.088;2022-12-22T00:30:12;17;15;
31330;PMS5003;34067;39.548;-76.088;2022-12-22T00:32:42;20;17;
31330;PMS5003;34067;39.548;-76.088;2022-12-22T00:35:11;18;14;
31330;PMS5003;34067;39.548;-76.088;2022-12-22T00:37:41;22;21;
31330;PMS5003;34067;39.548;-76.088;2022-12-22T00:40:14;15;15;
31330;PMS5003;34067;39.548;-76.088;2022-12-22T00:42:43;15;15;
31330;PMS5003;34067;39.548;-76.088;2022-12-22T00:45:12;22;20;
31330;PMS5003;34067;39.548;-76.088;2022-12-22T00:47:47;20;19;
31330;PMS5003;34067;39.548;-76.088;2022-12-22T00:50:15;20;16;
31330;PMS5003;34067;39.548;-76.088;2022-12-22T00:52:44;24;20;
31330;PMS5003;34067;39.548;-76.088;2022-12-22T00:55:13;19;18;
31330;PMS5003;34067;39.548;-76.088;2022-12-22T00:57:42;20;16;
31330;PMS5003;34067;39.548;-76.088;2022-12-22T01:00:14;20;19;
31330;PMS5003;34067;39.548;-76.088;2022-12-22T01:02:44;19;18;
31330;PMS5003;34067;39.548;-76.088;2022-12-22T01:05:12;24;22;
31330;PMS5003;34067;39.548;-76.088;2022-12-22T01:07:41;18;15;
31330;PMS5003;34067;39.548;-76.088;2022-12-22T01:10:11;16;15;
31330;PMS5003;34067;39.548;-76.088;2022-12-22T01:12:40;21;19;
31330;PMS5003;34067;39.548;-76.088;2022-12-22T01:15:10;20;20;
31330;PMS5003;34067;39.548;-76.088;2022-12-22T01:17:42;20;18;
31330;PMS5003;34067;39.548;-76.088;2022-12-22T01:20:12;19;14;
31330;PMS5003;34067;39.548;-76.088;2022-12-22T01:22:40;16;15;
31330;PMS5003;34067;39.548;-76.088;2022-12-22T01:25:11;16;16;
31330;PMS5003;34067;39.548;-76.088;2022-12-22T01:27:41;18;16;
31330;PMS5003;34067;39.548;-76.088;2022-12-22T01:30:10;15;14;
31330;PMS5003;34067;39.548;-76.088;2022-12-22T01:32:38;18;18;
31330;PMS5003;34067;39.548;-76.088;2022-12-22T01:35:07;18;15;
31330;PMS5003;34067;39.548;-76.088;2022-12-22T01:37:43;25;23;
31330;PMS5003;34067;39.548;-76.088;2022-12-22T01:40:13;19;18;
31330;PMS5003;34067;39.548;-76.088;2022-12-22T01:42:43;19;16;
31330;PMS5003;34067;39.548;-76.088;2022-12-22T01:45:15;16;14;
31330;PMS5003;34067;39.548;-76.088;2022-12-22T01:47:48;19;18;
31330;PMS5003;34067;39.548;-76.088;2022-12-22T01:50:19;18;15;
31330;PMS5003;34067;39.548;-76.088;2022-12-22T01:52:51;17;15;
31330;PMS5003;34067;39.548;-76.088;2022-12-22T01:55:22;27;21;
31330;PMS5003;34067;39.548;-76.088;2022-12-22T01:57:53;21;19;
31330;PMS5003;34067;39.548;-76.088;2022-12-22T02:00:21;19;17;
31330;PMS5003;34067;39.548;-76.088;2022-12-22T02:02:50;21;19;
31330;PMS5003;34067;39.548;-76.088;2022-12-22T02:05:18;23;20;
31330;PMS5003;34067;39.548;-76.088;2022-12-22T02:07:53;20;18;
31330;PMS5003;34067;39.548;-76.088;2022-12-22T02:10:33;21;20;
31330;PMS5003;34067;39.548;-76.088;2022-12-22T02:13:15;23;23;
31330;PMS5003;34067;39.548;-76.088;2022-12-22T02:15:54;20;18;
31330;PMS5003;34067;39.548;-76.088;2022-12-22T02:18:29;20;18;
31330;PMS5003;34067;39.548;-76.088;2022-12-22T02:21:05;23;21;
31330;PMS5003;34067;39.548;-76.088;2022-12-22T02:23:42;23;22;
31330;PMS5003;34067;39.548;-76.088;2022-12-22T02:26:26;24;22;
31330;PMS5003;34067;39.548;-76.088;2022-12-22T02:28:57;24;20;
31330;PMS5003;34067;39.548;-76.088;2022-12-22T02:31:25;26;24;
31330;PMS5003;34067;39.548;-76.088;2022-12-22T02:34:01;22;20;
31330;PMS5003;34067;39.548;-76.088;2022-12-22T02:36:30;24;20;
31330;PMS5003;34067;39.548;-76.088;2022-12-22T02:39:09;22;20;
31330;PMS5003;34067;39.548;-76.088;2022-12-22T02:41:46;22;18;
31330;PMS5003;34067;39.548;-76.088;2022-12-22T02:44:26;22;18;
31330;PMS5003;34067;39.548;-76.088;2022-12-22T02:47:05;19;15;
31330;PMS5003;34067;39.548;-76.088;2022-12-22T02:49:40;28;24;
31330;PMS5003;34067;39.548;-76.088;2022-12-22T02:52:18;24;23;
31330;PMS5003;34067;39.548;-76.088;2022-12-22T02:54:50;28;24;
31330;PMS5003;34067;39.548;-76.088;2022-12-22T02:57:18;21;19;
31330;PMS5003;34067;39.548;-76.088;2022-12-22T02:59:48;20;18;
31330;PMS5003;34067;39.548;-76.088;2022-12-22T03:02:15;18;17;
31330;PMS5003;34067;39.548;-76.088;2022-12-22T03:04:44;24;22;
31330;PMS5003;34067;39.548;-76.088;2022-12-22T03:07:13;26;23;
31330;PMS5003;34067;39.548;-76.088;2022-12-22T03:09:41;17;15;
31330;PMS5003;34067;39.548;-76.088;2022-12-22T03:12:09;19;18;
31330;PMS5003;34067;39.548;-76.088;2022-12-22T03:14:37;17;15;
31330;PMS5003;34067;39.548;-76.088;2022-12-22T03:17:12;24;20;
31330;PMS5003;34067;39.548;-76.088;2022-12-22T03:19:40;21;18;
31330;PMS5003;34067;39.548;-76.088;2022-12-22T03:22:11;25;20;
31330;PMS5003;34067;39.548;-76.088;2022-12-22T03:24:40;19;15;
31330;PMS5003;34067;39.548;-76.088;2022-12-22T03:27:13;23;18;
31330;PMS5003;34067;39.548;-76.088;2022-12-22T03:29:41;20;20;
31330;PMS5003;34067;39.548;-76.088;2022-12-22T03:32:10;24;17;
31330;PMS5003;34067;39.548;-76.088;2022-12-22T03:34:38;26;23;
31330;PMS5003;34067;39.548;-76.088;2022-12-22T03:37:06;20;19;
31330;PMS5003;34067;39.548;-76.088;2022-12-22T03:39:34;22;19;
31330;PMS5003;34067;39.548;-76.088;2022-12-22T03:42:02;22;15;
31330;PMS5003;34067;39.548;-76.088;2022-12-22T03:44:31;20;18;
31330;PMS5003;34067;39.548;-76.088;2022-12-22T03:46:59;18;15;
31330;PMS5003;34067;39.548;-76.088;2022-12-22T03:49:28;19;17;
31330;PMS5003;34067;39.548;-76.088;2022-12-22T03:51:57;24;22;
31330;PMS5003;34067;39.548;-76.088;2022-12-22T03:54:26;23;20;
31330;PMS5003;34067;39.548;-76.088;2022-12-22T03:56:54;23;19;
31330;PMS5003;34067;39.548;-76.088;2022-12-22T03:59:23;20;18;
31330;PMS5003;34067;39.548;-76.088;2022-12-22T04:01:52;19;15;
31330;PMS5003;34067;39.548;-76.088;2022-12-22T04:04:21;17;15;
31330;PMS5003;34067;39.548;-76.088;2022-12-22T04:06:52;18;15;
31330;PMS5003;34067;39.548;-76.088;2022-12-22T04:09:21;20;19;
31330;PMS5003;34067;39.548;-76.088;2022-12-22T04:11:48;22;18;
31330;PMS5003;34067;39.548;-76.088;2022-12-22T04:14:18;19;18;
31330;PMS5003;34067;39.548;-76.088;2022-12-22T04:16:46;23;22;
31330;PMS5003;34067;39.548;-76.088;2022-12-22T04:19:15;29;24;
31330;PMS5003;34067;39.548;-76.088;2022-12-22T04:21:43;24;23;
31330;PMS5003;34067;39.548;-76.088;2022-12-22T04:24:11;24;22;
31330;PMS5003;34067;39.548;-76.088;2022-12-22T04:26:40;19;19;
31330;PMS5003;34067;39.548;-76.088;2022-12-22T04:29:08;19;18;
31330;PMS5003;34067;39.548;-76.088;2022-12-22T04:31:37;22;21;
31330;PMS5003;34067;39.548;-76.088;2022-12-22T04:34:05;24;18;
31330;PMS5003;34067;39.548;-76.088;2022-12-22T04:36:33;23;21;
31330;PMS5003;34067;39.548;-76.088;2022-12-22T04:39:01;23;21;
31330;PMS5003;34067;39.548;-76.088;2022-12-22T04:41:30;21;18;
31330;PMS5003;34067;39.548;-76.088;2022-12-22T04:43:58;18;18;
31330;PMS5003;34067;39.548;-76.088;2022-12-22T04:46:27;23;21;
31330;PMS5003;34067;39.548;-76.088;2022-12-22T04:48:55;26;23;
31330;PMS5003;34067;39.548;-76.088;2022-12-22T04:51:23;21;18;
31330;PMS5003;34067;39.548;-76.088;2022-12-22T04:53:51;21;19;
31330;PMS5003;34067;39.548;-76.088;2022-12-22T04:56:20;31;27;
31330;PMS5003;34067;39.548;-76.088;2022-12-22T04:58:48;28;24;
31330;PMS5003;34067;39.548;-76.088;2022-12-22T05:01:17;23;22;
31330;PMS5003;34067;39.548;-76.088;2022-12-22T05:03:45;32;28;
31330;PMS5003;34067;39.548;-76.088;2022-12-22T05:06:14;27;24;
31330;PMS5003;34067;39.548;-76.088;2022-12-22T05:08:43;23;22;
31330;PMS5003;34067;39.548;-76.088;2022-12-22T05:11:11;26;22;
31330;PMS5003;34067;39.548;-76.088;2022-12-22T05:13:39;27;24;
31330;PMS5003;34067;39.548;-76.088;2022-12-22T05:16:08;32;26;
31330;PMS5003;34067;39.548;-76.088;2022-12-22T05:18:38;32;31;
31330;PMS5003;34067;39.548;-76.088;2022-12-22T05:21:09;29;26;
31330;PMS5003;34067;39.548;-76.088;2022-12-22T05:23:39;26;23;
31330;PMS5003;34067;39.548;-76.088;2022-12-22T05:26:08;36;26;
31330;PMS5003;34067;39.548;-76.088;2022-12-22T05:28:38;24;24;
31330;PMS5003;34067;39.548;-76.088;2022-12-22T05:31:07;32;27;
31330;PMS5003;34067;39.548;-76.088;2022-12-22T05:33:37;27;23;
31330;PMS5003;34067;39.548;-76.088;2022-12-22T05:36:05;37;27;
31330;PMS5003;34067;39.548;-76.088;2022-12-22T05:38:34;28;24;
31330;PMS5003;34067;39.548;-76.088;2022-12-22T05:41:03;36;33;
31330;PMS5003;34067;39.548;-76.088;2022-12-22T05:43:32;33;29;
31330;PMS5003;34067;39.548;-76.088;2022-12-22T05:46:01;29;27;
31330;PMS5003;34067;39.548;-76.088;2022-12-22T05:48:29;34;28;
31330;PMS5003;34067;39.548;-76.088;2022-12-22T05:50:57;34;33;
31330;PMS5003;34067;39.548;-76.088;2022-12-22T05:53:25;34;30;
31330;PMS5003;34067;39.548;-76.088;2022-12-22T05:55:53;38;30;
31330;PMS5003;34067;39.548;-76.088;2022-12-22T05:58:22;34;33;
31330;PMS5003;34067;39.548;-76.088;2022-12-22T06:03:15;34;32;
31330;PMS5003;34067;39.548;-76.088;2022-12-22T06:05:43;37;31;
31330;PMS5003;34067;39.548;-76.088;2022-12-22T06:08:15;41;33;
31330;PMS5003;34067;39.548;-76.088;2022-12-22T06:10:43;31;28;
31330;PMS5003;34067;39.548;-76.088;2022-12-22T06:13:11;34;31;
31330;PMS5003;34067;39.548;-76.088;2022-12-22T06:15:39;34;32;
31330;PMS5003;34067;39.548;-76.088;2022-12-22T06:18:08;36;31;
31330;PMS5003;34067;39.548;-76.088;2022-12-22T06:20:36;37;31;
31330;PMS5003;34067;39.548;-76.088;2022-12-22T06:23:04;29;24;
31330;PMS5003;34067;39.548;-76.088;2022-12-22T06:25:32;29;28;
31330;PMS5003;34067;39.548;-76.088;2022-12-22T06:28:01;39;33;
31330;PMS5003;34067;39.548;-76.088;2022-12-22T06:30:29;33;31;
31330;PMS5003;34067;39.548;-76.088;2022-12-22T06:32:58;37;34;
31330;PMS5003;34067;39.548;-76.088;2022-12-22T06:35:26;41;34;
31330;PMS5003;34067;39.548;-76.088;2022-12-22T06:37:54;41;32;
31330;PMS5003;34067;39.548;-76.088;2022-12-22T06:40:22;37;33;
31330;PMS5003;34067;39.548;-76.088;2022-12-22T06:42:50;38;37;
31330;PMS5003;34067;39.548;-76.088;2022-12-22T06:45:18;43;39;
31330;PMS5003;34067;39.548;-76.088;2022-12-22T06:47:46;32;31;
31330;PMS5003;34067;39.548;-76.088;2022-12-22T06:50:15;42;38;
31330;PMS5003;34067;39.548;-76.088;2022-12-22T06:52:43;34;33;
31330;PMS5003;34067;39.548;-76.088;2022-12-22T06:55:11;31;29;
31330;PMS5003;34067;39.548;-76.088;2022-12-22T06:57:38;33;30;
31330;PMS5003;34067;39.548;-76.088;2022-12-22T07:00:07;33;30;
31330;PMS5003;34067;39.548;-76.088;2022-12-22T07:02:35;33;27;
31330;PMS5003;34067;39.548;-76.088;2022-12-22T07:05:04;27;23;
31330;PMS5003;34067;39.548;-76.088;2022-12-22T07:07:33;32;27;
31330;PMS5003;34067;39.548;-76.088;2022-12-22T07:10:02;34;32;
31330;PMS5003;34067;39.548;-76.088;2022-12-22T07:12:31;28;25;
31330;PMS5003;34067;39.548;-76.088;2022-12-22T07:14:59;29;28;
31330;PMS5003;34067;39.548;-76.088;2022-12-22T07:17:27;28;25;
31330;PMS5003;34067;39.548;-76.088;2022-12-22T07:19:55;29;24;
31330;PMS5003;34067;39.548;-76.088;2022-12-22T07:22:23;27;25;
31330;PMS5003;34067;39.548;-76.088;2022-12-22T07:24:52;31;27;
31330;PMS5003;34067;39.548;-76.088;2022-12-22T07:27:19;30;29;
31330;PMS5003;34067;39.548;-76.088;2022-12-22T07:29:47;30;27;
31330;PMS5003;34067;39.548;-76.088;2022-12-22T07:32:16;28;27;
31330;PMS5003;34067;39.548;-76.088;2022-12-22T07:34:44;29;26;
31330;PMS5003;34067;39.548;-76.088;2022-12-22T07:37:12;30;28;
31330;PMS5003;34067;39.548;-76.088;2022-12-22T07:39:40;33;29;
31330;PMS5003;34067;39.548;-76.088;2022-12-22T07:42:13;35;28;
31330;PMS5003;34067;39.548;-76.088;2022-12-22T07:44:41;34;29;
31330;PMS5003;34067;39.548;-76.088;2022-12-22T07:47:09;40;35;
31330;PMS5003;34067;39.548;-76.088;2022-12-22T07:49:37;33;30;
31330;PMS5003;34067;39.548;-76.088;2022-12-22T07:52:05;39;36;
31330;PMS5003;34067;39.548;-76.088;2022-12-22T07:54:34;35;29;
31330;PMS5003;34067;39.548;-76.088;2022-12-22T07:57:02;31;29;
31330;PMS5003;34067;39.548;-76.088;2022-12-22T07:59:30;33;30;
31330;PMS5003;34067;39.548;-76.088;2022-12-22T08:01:58;37;33;
31330;PMS5003;34067;39.548;-76.088;2022-12-22T08:04:25;31;24;
31330;PMS5003;34067;39.548;-76.088;2022-12-22T08:06:54;28;27;
31330;PMS5003;34067;39.548;-76.088;2022-12-22T08:09:22;25;24;
31330;PMS5003;34067;39.548;-76.088;2022-12-22T08:11:50;31;30;
31330;PMS5003;34067;39.548;-76.088;2022-12-22T08:14:19;29;25;
31330;PMS5003;34067;39.548;-76.088;2022-12-22T08:16:47;31;28;
31330;PMS5003;34067;39.548;-76.088;2022-12-22T08:19:15;30;29;
31330;PMS5003;34067;39.548;-76.088;2022-12-22T08:21:43;32;27;
31330;PMS5003;34067;39.548;-76.088;2022-12-22T08:24:11;30;28;
31330;PMS5003;34067;39.548;-76.088;2022-12-22T08:26:39;33;33;
31330;PMS5003;34067;39.548;-76.088;2022-12-22T08:29:12;32;28;
31330;PMS5003;34067;39.548;-76.088;2022-12-22T08:31:44;37;35;
31330;PMS5003;34067;39.548;-76.088;2022-12-22T08:34:13;44;41;
31330;PMS5003;34067;39.548;-76.088;2022-12-22T08:36:43;38;32;
31330;PMS5003;34067;39.548;-76.088;2022-12-22T08:39:15;33;32;
31330;PMS5003;34067;39.548;-76.088;2022-12-22T08:41:46;36;34;
31330;PMS5003;34067;39.548;-76.088;2022-12-22T08:44:15;42;39;
31330;PMS5003;34067;39.548;-76.088;2022-12-22T08:46:44;34;32;
31330;PMS5003;34067;39.548;-76.088;2022-12-22T08:49:13;38;29;
31330;PMS5003;34067;39.548;-76.088;2022-12-22T08:51:40;29;26;
31330;PMS5003;34067;39.548;-76.088;2022-12-22T08:54:09;38;32;
31330;PMS5003;34067;39.548;-76.088;2022-12-22T08:56:37;29;26;
31330;PMS5003;34067;39.548;-76.088;2022-12-22T08:59:06;33;32;
31330;PMS5003;34067;39.548;-76.088;2022-12-22T09:01:35;34;29;
31330;PMS5003;34067;39.548;-76.088;2022-12-22T09:04:05;37;32;
31330;PMS5003;34067;39.548;-76.088;2022-12-22T09:06:34;32;30;
31330;PMS5003;34067;39.548;-76.088;2022-12-22T09:09:03;39;34;
31330;PMS5003;34067;39.548;-76.088;2022-12-22T09:11:32;35;32;
31330;PMS5003;34067;39.548;-76.088;2022-12-22T09:14:01;29;27;
31330;PMS5003;34067;39.548;-76.088;2022-12-22T09:16:30;28;25;
31330;PMS5003;34067;39.548;-76.088;2022-12-22T09:18:59;28;25;
31330;PMS5003;34067;39.548;-76.088;2022-12-22T09:21:27;29;28;
31330;PMS5003;34067;39.548;-76.088;2022-12-22T09:23:56;31;28;
31330;PMS5003;34067;39.548;-76.088;2022-12-22T09:26:24;20;20;
31330;PMS5003;34067;39.548;-76.088;2022-12-22T09:28:55;27;22;
31330;PMS5003;34067;39.548;-76.088;2022-12-22T09:31:23;31;25;
31330;PMS5003;34067;39.548;-76.088;2022-12-22T09:33:51;25;24;
31330;PMS5003;34067;39.548;-76.088;2022-12-22T09:36:21;23;18;
31330;PMS5003;34067;39.548;-76.088;2022-12-22T09:38:52;23;19;
31330;PMS5003;34067;39.548;-76.088;2022-12-22T09:41:20;25;24;
31330;PMS5003;34067;39.548;-76.088;2022-12-22T09:43:54;20;19;
31330;PMS5003;34067;39.548;-76.088;2022-12-22T09:46:23;12;10;
31330;PMS5003;34067;39.548;-76.088;2022-12-22T09:48:55;15;15;
31330;PMS5003;34067;39.548;-76.088;2022-12-22T09:51:23;20;15;
31330;PMS5003;34067;39.548;-76.088;2022-12-22T09:53:53;13;12;
31330;PMS5003;34067;39.548;-76.088;2022-12-22T09:56:24;13;12;
31330;PMS5003;34067;39.548;-76.088;2022-12-22T09:58:56;18;17;
31330;PMS5003;34067;39.548;-76.088;2022-12-22T10:01:29;14;13;
31330;PMS5003;34067;39.548;-76.088;2022-12-22T10:04:08;15;14;
31330;PMS5003;34067;39.548;-76.088;2022-12-22T10:06:44;17;14;
31330;PMS5003;34067;39.548;-76.088;2022-12-22T10:09:19;18;14;
31330;PMS5003;34067;39.548;-76.088;2022-12-22T10:11:50;20;18;
31330;PMS5003;34067;39.548;-76.088;2022-12-22T10:14:19;19;17;
31330;PMS5003;34067;39.548;-76.088;2022-12-22T10:16:47;17;14;
31330;PMS5003;34067;39.548;-76.088;2022-12-22T10:19:19;25;23;
31330;PMS5003;34067;39.548;-76.088;2022-12-22T10:21:48;24;23;
31330;PMS5003;34067;39.548;-76.088;2022-12-22T10:24:17;19;17;
31330;PMS5003;34067;39.548;-76.088;2022-12-22T10:26:55;20;18;
31330;PMS5003;34067;39.548;-76.088;2022-12-22T10:29:25;20;18;
31330;PMS5003;34067;39.548;-76.088;2022-12-22T10:31:57;30;23;
31330;PMS5003;34067;39.548;-76.088;2022-12-22T10:34:27;19;19;
31330;PMS5003;34067;39.548;-76.088;2022-12-22T10:36:59;31;29;
31330;PMS5003;34067;39.548;-76.088;2022-12-22T10:39:30;25;24;
31330;PMS5003;34067;39.548;-76.088;2022-12-22T10:42:01;23;21;
31330;PMS5003;34067;39.548;-76.088;2022-12-22T10:44:35;32;24;
31330;PMS5003;34067;39.548;-76.088;2022-12-22T10:47:10;25;24;
31330;PMS5003;34067;39.548;-76.088;2022-12-22T10:49:41;22;20;
31330;PMS5003;34067;39.548;-76.088;2022-12-22T10:52:12;28;22;
31330;PMS5003;34067;39.548;-76.088;2022-12-22T10:54:42;26;24;
31330;PMS5003;34067;39.548;-76.088;2022-12-22T10:57:28;24;21;
31330;PMS5003;34067;39.548;-76.088;2022-12-22T10:59:57;23;21;
31330;PMS5003;34067;39.548;-76.088;2022-12-22T11:02:33;20;18;
31330;PMS5003;34067;39.548;-76.088;2022-12-22T11:05:04;25;23;
31330;PMS5003;34067;39.548;-76.088;2022-12-22T11:07:35;20;20;
31330;PMS5003;34067;39.548;-76.088;2022-12-22T11:10:25;20;20;
31330;PMS5003;34067;39.548;-76.088;2022-12-22T11:13:01;20;20;
31330;PMS5003;34067;39.548;-76.088;2022-12-22T11:15:42;24;23;
31330;PMS5003;34067;39.548;-76.088;2022-12-22T11:18:22;20;19;
31330;PMS5003;34067;39.548;-76.088;2022-12-22T11:21:04;25;21;
31330;PMS5003;34067;39.548;-76.088;2022-12-22T11:23:44;24;23;
31330;PMS5003;34067;39.548;-76.088;2022-12-22T11:26:22;28;28;
31330;PMS5003;34067;39.548;-76.088;2022-12-22T11:29:04;21;20;
31330;PMS5003;34067;39.548;-76.088;2022-12-22T11:31:50;21;20;
31330;PMS5003;34067;39.548;-76.088;2022-12-22T11:34:38;24;23;
31330;PMS5003;34067;39.548;-76.088;2022-12-22T11:37:25;17;15;
31330;PMS5003;34067;39.548;-76.088;2022-12-22T11:40:02;20;19;
31330;PMS5003;34067;39.548;-76.088;2022-12-22T11:42:48;16;16;
31330;PMS5003;34067;39.548;-76.088;2022-12-22T11:45:38;21;16;
31330;PMS5003;34067;39.548;-76.088;2022-12-22T11:48:25;20;18;
31330;PMS5003;34067;39.548;-76.088;2022-12-22T11:51:04;21;20;
31330;PMS5003;34067;39.548;-76.088;2022-12-22T11:53:46;16;14;
31330;PMS5003;34067;39.548;-76.088;2022-12-22T11:56:31;21;20;
31330;PMS5003;34067;39.548;-76.088;2022-12-22T11:59:09;22;21;
31330;PMS5003;34067;39.548;-76.088;2022-12-22T12:01:59;23;19;
31330;PMS5003;34067;39.548;-76.088;2022-12-22T12:04:53;18;18;
31330;PMS5003;34067;39.548;-76.088;2022-12-22T12:07:58;19;19;
31330;PMS5003;34067;39.548;-76.088;2022-12-22T12:10:38;23;19;
31330;PMS5003;34067;39.548;-76.088;2022-12-22T12:13:16;15;13;
31330;PMS5003;34067;39.548;-76.088;2022-12-22T12:15:54;15;15;
31330;PMS5003;34067;39.548;-76.088;2022-12-22T12:18:35;21;16;
31330;PMS5003;34067;39.548;-76.088;2022-12-22T12:21:22;16;15;
31330;PMS5003;34067;39.548;-76.088;2022-12-22T12:23:59;19;18;
31330;PMS5003;34067;39.548;-76.088;2022-12-22T12:26:51;14;13;
31330;PMS5003;34067;39.548;-76.088;2022-12-22T12:29:31;13;13;
31330;PMS5003;34067;39.548;-76.088;2022-12-22T12:32:04;18;14;
31330;PMS5003;34067;39.548;-76.088;2022-12-22T12:34:39;13;12;
31330;PMS5003;34067;39.548;-76.088;2022-12-22T12:37:14;15;13;
31330;PMS5003;34067;39.548;-76.088;2022-12-22T12:39:53;10;10;
31330;PMS5003;34067;39.548;-76.088;2022-12-22T12:42:29;10;10;
31330;PMS5003;34067;39.548;-76.088;2022-12-22T12:45:00;8;8;
31330;PMS5003;34067;39.548;-76.088;2022-12-22T12:47:29;9;9;
31330;PMS5003;34067;39.548;-76.088;2022-12-22T12:50:01;9;9;
31330;PMS5003;34067;39.548;-76.088;2022-12-22T12:53:07;10;8;
31330;PMS5003;34067;39.548;-76.088;2022-12-22T12:55:57;9;9;
31330;PMS5003;34067;39.548;-76.088;2022-12-22T12:58:58;8;8;
31330;PMS5003;34067;39.548;-76.088;2022-12-22T13:01:53;11;9;
31330;PMS5003;34067;39.548;-76.088;2022-12-22T13:05:30;7;7;
31330;PMS5003;34067;39.548;-76.088;2022-12-22T13:08:16;10;9;
31330;PMS5003;34067;39.548;-76.088;2022-12-22T13:10:48;8;7;
31330;PMS5003;34067;39.548;-76.088;2022-12-22T13:13:47;10;10;
31330;PMS5003;34067;39.548;-76.088;2022-12-22T13:16:25;10;10;
31330;PMS5003;34067;39.548;-76.088;2022-12-22T13:19:02;7;5;
31330;PMS5003;34067;39.548;-76.088;2022-12-22T13:21:39;14;13;
31330;PMS5003;34067;39.548;-76.088;2022-12-22T13:24:13;10;9;
31330;PMS5003;34067;39.548;-76.088;2022-12-22T13:26:47;8;8;
31330;PMS5003;34067;39.548;-76.088;2022-12-22T13:29:21;9;9;
31330;PMS5003;34067;39.548;-76.088;2022-12-22T13:31:54;10;8;
31330;PMS5003;34067;39.548;-76.088;2022-12-22T13:34:43;11;10;
31330;PMS5003;34067;39.548;-76.088;2022-12-22T13:37:15;8;8;
31330;PMS5003;34067;39.548;-76.088;2022-12-22T13:40:04;8;8;
31330;PMS5003;34067;39.548;-76.088;2022-12-22T13:42:35;8;8;
31330;PMS5003;34067;39.548;-76.088;2022-12-22T13:45:10;11;9;
31330;PMS5003;34067;39.548;-76.088;2022-12-22T13:47:44;10;9;
31330;PMS5003;34067;39.548;-76.088;2022-12-22T13:50:18;8;8;
31330;PMS5003;34067;39.548;-76.088;2022-12-22T13:52:49;11;9;
31330;PMS5003;34067;39.548;-76.088;2022-12-22T13:55:22;10;10;
31330;PMS5003;34067;39.548;-76.088;2022-12-22T13:57:53;54;54;
31330;PMS5003;34067;39.548;-76.088;2022-12-22T14:00:26;14;11;
31330;PMS5003;34067;39.548;-76.088;2022-12-22T14:02:55;12;12;
31330;PMS5003;34067;39.548;-76.088;2022-12-22T14:05:29;15;12;
31330;PMS5003;34067;39.548;-76.088;2022-12-22T14:08:01;12;12;
31330;PMS5003;34067;39.548;-76.088;2022-12-22T14:10:33;11;10;
31330;PMS5003;34067;39.548;-76.088;2022-12-22T14:13:05;12;12;
31330;PMS5003;34067;39.548;-76.088;2022-12-22T14:15:39;15;14;
31330;PMS5003;34067;39.548;-76.088;2022-12-22T14:18:11;11;11;
31330;PMS5003;34067;39.548;-76.088;2022-12-22T14:20:41;22;21;
31330;PMS5003;34067;39.548;-76.088;2022-12-22T14:23:15;22;22;
31330;PMS5003;34067;39.548;-76.088;2022-12-22T14:25:47;30;30;
31330;PMS5003;34067;39.548;-76.088;2022-12-22T14:28:18;101;100;
31330;PMS5003;34067;39.548;-76.088;2022-12-22T14:30:50;58;58;
31330;PMS5003;34067;39.548;-76.088;2022-12-22T14:33:26;76;75;
31330;PMS5003;34067;39.548;-76.088;2022-12-22T14:36:05;99;96;
31330;PMS5003;34067;39.548;-76.088;2022-12-22T14:38:43;22;20;
31330;PMS5003;34067;39.548;-76.088;2022-12-22T14:41:16;29;26;
31330;PMS5003;34067;39.548;-76.088;2022-12-22T14:43:51;42;41;
31330;PMS5003;34067;39.548;-76.088;2022-12-22T14:46:19;39;39;
31330;PMS5003;34067;39.548;-76.088;2022-12-22T14:48:47;32;32;
31330;PMS5003;34067;39.548;-76.088;2022-12-22T14:51:15;12;11;
31330;PMS5003;34067;39.548;-76.088;2022-12-22T14:53:45;30;29;
31330;PMS5003;34067;39.548;-76.088;2022-12-22T14:56:17;41;39;
31330;PMS5003;34067;39.548;-76.088;2022-12-22T14:58:46;37;34;
31330;PMS5003;34067;39.548;-76.088;2022-12-22T15:01:17;13;13;
31330;PMS5003;34067;39.548;-76.088;2022-12-22T15:03:57;8;6;
31330;PMS5003;34067;39.548;-76.088;2022-12-22T15:06:33;9;9;
31330;PMS5003;34067;39.548;-76.088;2022-12-22T15:09:07;9;9;
31330;PMS5003;34067;39.548;-76.088;2022-12-22T15:11:54;10;10;
31330;PMS5003;34067;39.548;-76.088;2022-12-22T15:14:30;9;9;
31330;PMS5003;34067;39.548;-76.088;2022-12-22T15:17:02;9;9;
31330;PMS5003;34067;39.548;-76.088;2022-12-22T15:19:33;14;13;
31330;PMS5003;34067;39.548;-76.088;2022-12-22T15:22:02;12;10;
31330;PMS5003;34067;39.548;-76.088;2022-12-22T15:24:33;12;10;
31330;PMS5003;34067;39.548;-76.088;2022-12-22T15:27:00;10;9;
31330;PMS5003;34067;39.548;-76.088;2022-12-22T15:29:29;9;9;
31330;PMS5003;34067;39.548;-76.088;2022-12-22T15:31:57;11;10;
31330;PMS5003;34067;39.548;-76.088;2022-12-22T15:34:26;9;9;
31330;PMS5003;34067;39.548;-76.088;2022-12-22T15:37:02;10;9;
31330;PMS5003;34067;39.548;-76.088;2022-12-22T15:39:30;9;9;
31330;PMS5003;34067;39.548;-76.088;2022-12-22T15:41:59;12;10;
31330;PMS5003;34067;39.548;-76.088;2022-12-22T15:44:28;13;11;
31330;PMS5003;34067;39.548;-76.088;2022-12-22T15:47:02;11;10;
31330;PMS5003;34067;39.548;-76.088;2022-12-22T15:49:31;10;9;
31330;PMS5003;34067;39.548;-76.088;2022-12-22T15:51:59;13;13;
31330;PMS5003;34067;39.548;-76.088;2022-12-22T15:54:30;11;10;
31330;PMS5003;34067;39.548;-76.088;2022-12-22T15:56:59;9;9;
31330;PMS5003;34067;39.548;-76.088;2022-12-22T15:59:27;12;12;
31330;PMS5003;34067;39.548;-76.088;2022-12-22T16:01:56;15;11;
31330;PMS5003;34067;39.548;-76.088;2022-12-22T16:04:24;12;10;
31330;PMS5003;34067;39.548;-76.088;2022-12-22T16:06:53;13;11;
31330;PMS5003;34067;39.548;-76.088;2022-12-22T16:09:22;11;11;
31330;PMS5003;34067;39.548;-76.088;2022-12-22T16:11:52;18;16;
31330;PMS5003;34067;39.548;-76.088;2022-12-22T16:14:20;17;13;
31330;PMS5003;34067;39.548;-76.088;2022-12-22T16:16:49;20;18;
31330;PMS5003;34067;39.548;-76.088;2022-12-22T16:19:17;19;18;
31330;PMS5003;34067;39.548;-76.088;2022-12-22T16:21:46;22;19;